Hauptseite
METAR-TAF:

METAR-TAF

Flughäfen :

Flughafen Lahr

Lahr, Deutschland

Breite: 48-22-09N, Länge: 007-49-40E, Höhe: 156 m

Beobachtung

Neuester Wetterbericht von vor 34 Minuten, um 12:20 UTC
Wind 9 kt aus Süd
Temperatur 11°C
Luftfeuchtigkeit 76%
Luftdruck 1017 hPa
Sichtweite 10 km oder mehr
Leicht bewölkt in der Höhe von 1500 ft
Aufgelockert bewölkt in der Höhe von 19000 ft

METAR: EDTL 261220Z 19009KT 9999 FEW015 SCT190 11/07 Q1017

Zeit: 14:54 (12:54 UTC)

Prognose

Neuester Wetterbericht von vor 1 Stunde und 54 Minuten, um 11:00 UTC
Gültige Prognose vom 26 um 12 UTC bis 26 um 21 UTC
Wind 7 kt aus Süd
Sichtweite 10 km oder mehr
Aufgelockert bewölkt in der Höhe von 1200 ft
Durchbrochene Bewölkung in der Höhe von 4500 ft
Zeitweise
vom 26 um 12 UTC bis 26 um 13 UTC
Durchbrochene Bewölkung in der Höhe von 1200 ft

TAF: EDTL 261100Z 2612/2621 19007KT 9999 SCT012 BKN045 TEMPO 2612/2613 BKN012

Wetterbeobachtungen und Prognosen von mehr als 4000 Flughäfen (METAR und TAF Bericht).

Die verfügbaren Stationen werden durch gelbe und rote Markierungen auf der Karte dargestellt.

Führen Sie die Maus auf sie, um den Namen der Station zu sehen.

Darauf klicken, um die Beobachtung von Wetterbeobachtungen und Prognosen zu sehen.

Um die Karte zu ändern : klicken Sie auf den grünen Tasten mit einem schwarzen Kreuz Zum Vergrößern, auf den grünen Button mit einem Gedankenstrich zu verkleinern, oder auf die grünen Pfeile für benachbarte Karten.


METAR-TAF: